createdAt,value
2023-08-02T00:01:35.587Z,97183.22
2023-08-02T00:04:10.958Z,97178.56
2023-08-02T00:06:41.643Z,97177.78
2023-08-02T00:09:11.274Z,97182.41
2023-08-02T00:11:43.060Z,97184.38
2023-08-02T00:14:12.483Z,97185.50
2023-08-02T00:16:47.287Z,97182.00
2023-08-02T00:19:17.743Z,97185.50
2023-08-02T00:21:47.351Z,97190.97
2023-08-02T00:24:16.392Z,97197.22
2023-08-02T00:26:46.134Z,97199.94
2023-08-02T00:29:15.816Z,97197.53
2023-08-02T00:31:45.247Z,97202.28
2023-08-02T00:34:14.902Z,97201.50
2023-08-02T00:36:44.952Z,97209.34
2023-08-02T00:39:15.304Z,97214.47
2023-08-02T00:42:06.405Z,97219.22
2023-08-02T00:44:36.088Z,97224.34
2023-08-02T00:47:05.491Z,97227.88
2023-08-02T00:49:35.506Z,97237.25
2023-08-02T00:52:04.880Z,97233.41
2023-08-02T00:54:34.622Z,97238.16
2023-08-02T00:57:04.492Z,97238.63
2023-08-02T00:59:33.844Z,97219.97
2023-08-02T01:02:03.611Z,97233.69
2023-08-02T01:04:32.782Z,97233.00
2023-08-02T01:07:13.965Z,97235.50
2023-08-02T01:09:50.268Z,97238.31
2023-08-02T01:12:22.281Z,97248.50
2023-08-02T01:15:00.161Z,97241.59
2023-08-02T01:17:30.229Z,97246.44
2023-08-02T01:20:09.393Z,97243.00
2023-08-02T01:22:40.094Z,97244.25
2023-08-02T01:25:11.063Z,97250.25
2023-08-02T01:27:50.905Z,97248.88
2023-08-02T01:30:22.986Z,97259.06
2023-08-02T01:32:52.903Z,97259.28
2023-08-02T01:35:23.515Z,97249.25
2023-08-02T01:37:53.185Z,97252.94
2023-08-02T01:40:22.263Z,97257.09
2023-08-02T01:42:51.866Z,97256.47
2023-08-02T01:45:21.090Z,97264.03
2023-08-02T01:47:50.931Z,97266.59
2023-08-02T01:50:21.000Z,97266.44
2023-08-02T01:52:51.287Z,97266.72
2023-08-02T01:55:21.430Z,97268.50
2023-08-02T01:57:50.697Z,97275.88
2023-08-02T02:00:20.178Z,97277.03
2023-08-02T02:02:49.759Z,97277.69
2023-08-02T02:05:20.928Z,97270.88
2023-08-02T02:07:50.849Z,97278.22
2023-08-02T02:10:20.243Z,97280.81
2023-08-02T02:12:49.311Z,97275.84
2023-08-02T02:15:18.440Z,97280.88
2023-08-02T02:17:47.617Z,97286.53
2023-08-02T02:20:16.790Z,97294.19
2023-08-02T02:22:45.969Z,97283.94
2023-08-02T02:25:17.064Z,97284.06
2023-08-02T02:27:46.126Z,97286.75
2023-08-02T02:30:15.965Z,97286.53
2023-08-02T02:32:45.725Z,97284.19
2023-08-02T02:35:14.939Z,97274.91
2023-08-02T02:37:45.388Z,97295.59
2023-08-02T02:40:15.609Z,97281.47
2023-08-02T02:42:45.001Z,97280.28
2023-08-02T02:45:16.301Z,97279.19
2023-08-02T02:47:46.112Z,97280.25
2023-08-02T02:50:15.498Z,97279.44
2023-08-02T02:52:45.044Z,97278.03
2023-08-02T02:55:14.132Z,97276.34
2023-08-02T02:57:43.371Z,97277.72
2023-08-02T03:00:13.118Z,97277.00
2023-08-02T03:02:42.466Z,97293.03
2023-08-02T03:05:11.719Z,97283.38
2023-08-02T03:07:41.015Z,97275.16
2023-08-02T03:10:10.503Z,97286.66
2023-08-02T03:12:39.781Z,97283.22
2023-08-02T03:15:09.836Z,97281.91
2023-08-02T03:17:39.162Z,97293.22
2023-08-02T03:20:09.256Z,97293.63
2023-08-02T03:22:38.610Z,97291.03
2023-08-02T03:25:07.908Z,97284.78
2023-08-02T03:27:37.237Z,97294.59
2023-08-02T03:30:06.833Z,97291.91
2023-08-02T03:32:36.468Z,97292.28
2023-08-02T03:35:06.402Z,97289.31
2023-08-02T03:37:38.748Z,97286.94
2023-08-02T03:40:09.082Z,97296.44
2023-08-02T03:42:38.468Z,97301.09
2023-08-02T03:45:08.045Z,97298.94
2023-08-02T03:47:38.235Z,97299.53
2023-08-02T03:50:07.793Z,97300.81
2023-08-02T03:52:37.252Z,97300.31
2023-08-02T03:55:06.893Z,97304.34
2023-08-02T03:57:36.129Z,97305.06
2023-08-02T04:00:06.308Z,97305.06
2023-08-02T04:02:43.785Z,97308.75
2023-08-02T04:05:13.551Z,97308.56
2023-08-02T04:07:42.594Z,97305.47
2023-08-02T04:10:12.414Z,97306.38
2023-08-02T04:12:41.989Z,97306.81
2023-08-02T04:15:12.336Z,97312.41
2023-08-02T04:17:42.771Z,97319.22
2023-08-02T04:20:12.765Z,97319.78
2023-08-02T04:22:41.823Z,97319.78
2023-08-02T04:25:11.474Z,97324.59
2023-08-02T04:27:40.568Z,97324.38
2023-08-02T04:30:10.852Z,97327.69
2023-08-02T04:32:40.378Z,97335.25
2023-08-02T04:35:09.741Z,97326.66
2023-08-02T04:37:39.123Z,97327.69
2023-08-02T04:40:08.732Z,97334.44
2023-08-02T04:42:38.148Z,97336.13
2023-08-02T04:45:07.900Z,97337.41
2023-08-02T04:47:38.052Z,97326.41
2023-08-02T04:50:08.881Z,97324.09
2023-08-02T04:52:39.826Z,97334.41
2023-08-02T04:55:10.199Z,97336.31
2023-08-02T04:57:40.729Z,97330.81
2023-08-02T05:00:10.667Z,97341.50
2023-08-02T05:02:39.812Z,97335.94
2023-08-02T05:05:09.536Z,97335.19
2023-08-02T05:07:41.609Z,97328.91
2023-08-02T05:10:11.967Z,97337.16
2023-08-02T05:12:42.495Z,97333.59
2023-08-02T05:15:13.059Z,97335.16
2023-08-02T05:17:42.776Z,97327.28
2023-08-02T05:20:12.557Z,97337.13
2023-08-02T05:22:42.274Z,97331.59
2023-08-02T05:25:12.003Z,97328.38
2023-08-02T05:27:41.425Z,97324.00
2023-08-02T05:30:11.119Z,97338.66
2023-08-02T05:32:40.396Z,97335.16
2023-08-02T05:35:09.982Z,97332.03
2023-08-02T05:37:39.485Z,97332.41
2023-08-02T05:40:09.681Z,97335.19
2023-08-02T05:42:39.132Z,97335.19
2023-08-02T05:45:09.292Z,97333.22
2023-08-02T05:47:39.908Z,97339.53
2023-08-02T05:50:11.141Z,97330.47
2023-08-02T05:52:40.528Z,97340.31
2023-08-02T05:55:13.043Z,97330.44
2023-08-02T05:57:43.734Z,97334.00
2023-08-02T06:00:13.634Z,97329.66
2023-08-02T06:02:43.359Z,97335.19
2023-08-02T06:05:12.920Z,97332.81
2023-08-02T06:07:42.720Z,97334.78
2023-08-02T06:10:12.501Z,97335.94
2023-08-02T06:12:41.892Z,97335.19
2023-08-02T06:15:11.754Z,97330.03
2023-08-02T06:17:41.265Z,97330.06
2023-08-02T06:20:11.860Z,97330.81
2023-08-02T06:22:41.704Z,97325.72
2023-08-02T06:25:11.604Z,97324.53
2023-08-02T06:27:40.911Z,97328.47
2023-08-02T06:30:10.908Z,97321.00
2023-08-02T06:32:41.165Z,97325.31
2023-08-02T06:35:12.663Z,97324.16
2023-08-02T06:37:42.357Z,97319.41
2023-08-02T06:40:12.861Z,97315.84
2023-08-02T06:42:43.141Z,97317.81
2023-08-02T06:45:12.826Z,97317.03
2023-08-02T06:47:42.176Z,97314.69
2023-08-02T06:50:12.084Z,97311.97
2023-08-02T06:52:41.638Z,97313.13
2023-08-02T06:55:11.637Z,97311.16
2023-08-02T06:57:41.177Z,97322.94
2023-08-02T07:00:11.266Z,97316.28
2023-08-02T07:02:40.732Z,97317.84
2023-08-02T07:05:11.122Z,97313.53
2023-08-02T07:07:40.765Z,97315.84
2023-08-02T07:10:10.420Z,97313.78
2023-08-02T07:12:40.079Z,97307.06
2023-08-02T07:15:09.445Z,97307.97
2023-08-02T07:17:39.131Z,97309.97
2023-08-02T07:20:10.324Z,97299.69
2023-08-02T07:22:40.250Z,97300.13
2023-08-02T07:25:09.899Z,97292.22
2023-08-02T07:27:40.554Z,97300.09
2023-08-02T07:30:10.780Z,97295.81
2023-08-02T07:32:40.529Z,97293.84
2023-08-02T07:35:10.149Z,97291.44
2023-08-02T07:37:39.494Z,97289.09
2023-08-02T07:40:09.460Z,97280.03
2023-08-02T07:42:39.160Z,97279.25
2023-08-02T07:45:13.613Z,97277.66
2023-08-02T07:47:43.184Z,97272.94
2023-08-02T07:50:13.375Z,97280.81
2023-08-02T07:52:43.227Z,97278.44
2023-08-02T07:55:13.570Z,97279.22
2023-08-02T07:57:42.813Z,97273.34
2023-08-02T08:00:13.608Z,97278.06
2023-08-02T08:02:43.190Z,97265.03
2023-08-02T08:05:12.521Z,97265.88
2023-08-02T08:07:42.152Z,97261.91
2023-08-02T08:10:11.785Z,97261.91
2023-08-02T08:12:41.331Z,97261.53
2023-08-02T08:15:10.824Z,97256.41
2023-08-02T08:17:40.951Z,97254.03
2023-08-02T08:20:13.219Z,97256.41
2023-08-02T08:22:42.656Z,97248.53
2023-08-02T08:25:17.092Z,97248.53
2023-08-02T08:27:47.245Z,97243.78
2023-08-02T08:30:16.415Z,97237.09
2023-08-02T08:32:45.762Z,97244.59
2023-08-02T08:35:15.161Z,97233.16
2023-08-02T08:37:45.414Z,97232.00
2023-08-02T08:40:22.921Z,97228.06
2023-08-02T08:42:54.628Z,97222.94
2023-08-02T08:45:28.261Z,97219.41
2023-08-02T08:47:57.682Z,97213.09
2023-08-02T08:50:29.942Z,97205.22
2023-08-02T08:53:06.985Z,97200.09
2023-08-02T08:55:38.333Z,97191.41
2023-08-02T08:58:11.229Z,97187.09
2023-08-02T09:00:41.828Z,97186.69
2023-08-02T09:03:15.127Z,97183.56
2023-08-02T09:05:45.418Z,97187.09
2023-08-02T09:08:15.361Z,97178.03
2023-08-02T09:10:45.795Z,97164.25
2023-08-02T09:13:25.654Z,97163.88
2023-08-02T09:16:21.195Z,97165.44
2023-08-02T09:18:51.646Z,97160.31
2023-08-02T09:21:24.722Z,97161.09
2023-08-02T09:24:03.063Z,97156.41
2023-08-02T09:26:32.488Z,97151.69
2023-08-02T09:29:02.026Z,97143.03
2023-08-02T09:31:33.756Z,97139.06
2023-08-02T09:34:04.302Z,97141.03
2023-08-02T09:36:36.562Z,97139.88
2023-08-02T09:39:13.601Z,97133.19
2023-08-02T09:41:58.769Z,97126.50
2023-08-02T09:44:31.631Z,97132.00
2023-08-02T09:47:14.622Z,97115.09
2023-08-02T09:49:44.095Z,97117.06
2023-08-02T09:52:27.935Z,97124.50
2023-08-02T09:54:57.420Z,97110.31
2023-08-02T09:57:31.620Z,97115.44
2023-08-02T10:00:12.175Z,97110.34
2023-08-02T10:02:45.161Z,97110.72
2023-08-02T10:05:16.263Z,97108.38
2023-08-02T10:07:53.542Z,97098.56
2023-08-02T10:10:28.239Z,97092.63
2023-08-02T10:13:10.887Z,97085.16
2023-08-02T10:15:42.677Z,97081.63
2023-08-02T10:18:14.420Z,97085.56
2023-08-02T10:20:44.614Z,97081.63
2023-08-02T10:23:14.156Z,97076.13
2023-08-02T10:25:45.166Z,97077.31
2023-08-02T10:28:15.792Z,97078.50
2023-08-02T10:30:45.390Z,97084.81
2023-08-02T10:33:21.017Z,97084.81
2023-08-02T10:35:56.836Z,97079.69
2023-08-02T10:38:48.642Z,97078.50
2023-08-02T10:41:23.514Z,97077.69
2023-08-02T10:43:56.276Z,97086.34
2023-08-02T10:46:34.703Z,97082.78
2023-08-02T10:49:26.832Z,97083.59
2023-08-02T10:51:58.711Z,97078.09
2023-08-02T10:54:29.091Z,97078.88
2023-08-02T10:57:07.124Z,97074.94
2023-08-02T10:59:36.915Z,97071.84
2023-08-02T11:02:14.165Z,97072.22
2023-08-02T11:04:49.475Z,97070.63
2023-08-02T11:07:21.561Z,97071.41
2023-08-02T11:09:56.945Z,97069.06
2023-08-02T11:12:28.607Z,97065.53
2023-08-02T11:14:58.538Z,97054.91
2023-08-02T11:22:38.728Z,97050.56
2023-08-02T11:25:09.040Z,97049.41
2023-08-02T11:30:11.014Z,97047.44
2023-08-02T11:32:49.033Z,97052.56
2023-08-02T11:35:20.683Z,97057.25
2023-08-02T11:37:50.808Z,97060.41
2023-08-02T11:40:26.828Z,97067.50
2023-08-02T11:42:59.161Z,97060.81
2023-08-02T11:45:35.087Z,97067.50
2023-08-02T11:48:10.714Z,97056.47
2023-08-02T11:50:41.868Z,97057.25
2023-08-02T11:53:12.203Z,97067.47
2023-08-02T11:55:47.313Z,97076.91
2023-08-02T11:58:20.209Z,97080.03
2023-08-02T12:00:50.442Z,97088.28
2023-08-02T12:03:22.164Z,97082.41
2023-08-02T12:06:01.845Z,97092.63
2023-08-02T12:08:32.482Z,97098.50
2023-08-02T12:11:02.398Z,97105.19
2023-08-02T12:13:32.105Z,97098.09
2023-08-02T12:16:08.674Z,97105.19
2023-08-02T12:19:03.890Z,97100.06
2023-08-02T12:21:33.720Z,97098.06
2023-08-02T12:24:15.248Z,97090.19
2023-08-02T12:26:45.931Z,97084.69
2023-08-02T12:29:27.203Z,97084.66
2023-08-02T12:31:57.048Z,97083.84
2023-08-02T12:34:29.981Z,97094.06
2023-08-02T12:37:01.943Z,97103.09
2023-08-02T12:39:31.519Z,97099.97
2023-08-02T12:42:00.625Z,97105.84
2023-08-02T12:44:30.185Z,97112.50
2023-08-02T12:46:59.438Z,97105.78
2023-08-02T12:49:32.651Z,97105.41
2023-08-02T12:52:02.255Z,97105.38
2023-08-02T12:54:31.360Z,97108.53
2023-08-02T12:57:00.883Z,97115.97
2023-08-02T12:59:30.379Z,97120.25
2023-08-02T13:02:00.602Z,97129.63
2023-08-02T13:04:30.595Z,97133.50
2023-08-02T13:07:00.322Z,97141.75
2023-08-02T13:09:30.164Z,97146.81
2023-08-02T13:12:07.702Z,97144.84
2023-08-02T13:14:38.581Z,97151.09
2023-08-02T13:17:07.975Z,97148.31
2023-08-02T13:19:37.655Z,97160.44
2023-08-02T13:22:07.601Z,97167.50
2023-08-02T13:24:37.258Z,97177.72
2023-08-02T13:27:07.632Z,97174.97
2023-08-02T13:29:38.028Z,97169.13
2023-08-02T13:32:07.673Z,97172.34
2023-08-02T13:34:36.896Z,97162.13
2023-08-02T13:37:07.919Z,97154.22
2023-08-02T13:39:38.026Z,97151.84
2023-08-02T13:42:07.964Z,97151.84
2023-08-02T13:44:38.390Z,97149.09
2023-08-02T13:47:08.749Z,97162.78
2023-08-02T13:49:38.177Z,97174.13
2023-08-02T13:52:07.777Z,97179.56
2023-08-02T13:54:37.152Z,97177.22
2023-08-02T13:57:06.715Z,97183.09
2023-08-02T13:59:36.526Z,97189.81
2023-08-02T14:02:06.558Z,97197.31
2023-08-02T14:04:46.852Z,97205.25
2023-08-02T14:07:17.120Z,97214.66
2023-08-02T14:09:46.553Z,97233.69
2023-08-02T14:12:16.936Z,97237.88
2023-08-02T14:14:46.521Z,97241.03
2023-08-02T14:17:15.839Z,97244.56
2023-08-02T14:19:45.655Z,97240.72
2023-08-02T14:22:14.964Z,97242.88
2023-08-02T14:24:44.640Z,97246.06
2023-08-02T14:27:13.937Z,97242.34
2023-08-02T14:29:43.648Z,97233.09
2023-08-02T14:32:13.039Z,97219.75
2023-08-02T14:34:44.851Z,97215.44
2023-08-02T14:37:15.602Z,97227.22
2023-08-02T14:39:46.420Z,97240.50
2023-08-02T14:42:17.705Z,97233.19
2023-08-02T14:44:47.600Z,97231.91
2023-08-02T14:47:17.118Z,97219.69
2023-08-02T14:49:56.278Z,97211.84
2023-08-02T14:52:26.884Z,97193.53
2023-08-02T14:54:57.239Z,97170.97
2023-08-02T14:57:27.037Z,97168.75
2023-08-02T14:59:56.959Z,97177.66
2023-08-02T15:02:26.186Z,97187.34
2023-08-02T15:04:56.588Z,97189.56
2023-08-02T15:07:27.105Z,97192.19
2023-08-02T15:09:56.525Z,97183.34
2023-08-02T15:12:25.765Z,97203.78
2023-08-02T15:14:55.298Z,97214.34
2023-08-02T15:17:24.526Z,97208.44
2023-08-02T15:19:54.892Z,97220.88
2023-08-02T15:22:24.298Z,97231.09
2023-08-02T15:24:53.463Z,97250.19
2023-08-02T15:27:22.961Z,97237.69
2023-08-02T15:29:52.403Z,97236.28
2023-08-02T15:32:21.714Z,97242.22
2023-08-02T15:34:51.196Z,97246.78
2023-08-02T15:37:20.618Z,97246.06
2023-08-02T15:39:51.892Z,97259.38
2023-08-02T15:42:25.989Z,97264.78
2023-08-02T15:44:57.151Z,97277.91
2023-08-02T15:47:26.736Z,97281.94
2023-08-02T15:49:56.179Z,97282.44
2023-08-02T15:52:26.483Z,97293.09
2023-08-02T15:54:56.151Z,97303.31
2023-08-02T15:57:26.250Z,97319.63
2023-08-02T15:59:55.736Z,97317.28
2023-08-02T16:02:30.319Z,97327.81
2023-08-02T16:05:00.284Z,97327.47
2023-08-02T16:07:29.642Z,97323.00
2023-08-02T16:10:01.093Z,97333.31
2023-08-02T16:12:30.499Z,97338.38
2023-08-02T16:15:01.576Z,97342.66
2023-08-02T16:17:31.198Z,97338.53
2023-08-02T16:20:00.581Z,97344.44
2023-08-02T16:22:33.553Z,97344.69
2023-08-02T16:25:03.542Z,97343.38
2023-08-02T16:27:41.977Z,97346.00
2023-08-02T16:30:11.990Z,97349.84
2023-08-02T16:32:44.328Z,97341.03
2023-08-02T16:35:14.052Z,97331.25
2023-08-02T16:37:43.598Z,97337.88
2023-08-02T16:40:13.590Z,97332.69
2023-08-02T16:42:44.123Z,97331.78
2023-08-02T16:45:14.049Z,97326.44
2023-08-02T16:47:49.535Z,97330.03
2023-08-02T16:50:25.202Z,97330.03
2023-08-02T16:52:59.212Z,97337.78
2023-08-02T16:55:37.546Z,97323.59
2023-08-02T16:58:07.439Z,97325.09
2023-08-02T17:00:37.788Z,97331.34
2023-08-02T17:03:07.718Z,97326.81
2023-08-02T17:05:38.421Z,97324.91
2023-08-02T17:08:08.904Z,97342.63
2023-08-02T17:10:38.279Z,97346.94
2023-08-02T17:13:08.262Z,97341.25
2023-08-02T17:15:38.150Z,97341.94
2023-08-02T17:18:07.439Z,97348.44
2023-08-02T17:20:37.287Z,97342.97
2023-08-02T17:23:07.031Z,97349.66
2023-08-02T17:25:37.031Z,97342.97
2023-08-02T17:28:06.703Z,97338.75
2023-08-02T17:30:36.150Z,97339.09
2023-08-02T17:33:06.227Z,97337.22
2023-08-02T17:35:39.414Z,97331.75
2023-08-02T17:38:11.203Z,97324.47
2023-08-02T17:40:41.665Z,97328.78
2023-08-02T17:43:13.057Z,97330.72
2023-08-02T17:45:42.657Z,97318.22
2023-08-02T17:48:15.364Z,97318.47
2023-08-02T17:50:54.826Z,97320.59
2023-08-02T17:53:25.754Z,97310.50
2023-08-02T17:56:03.392Z,97313.00
2023-08-02T17:58:36.076Z,97314.25
2023-08-02T18:01:19.793Z,97308.91
2023-08-02T18:03:50.520Z,97302.50
2023-08-02T18:06:26.850Z,97296.56
2023-08-02T18:08:57.884Z,97295.16
2023-08-02T18:11:27.842Z,97286.22
2023-08-02T18:13:58.459Z,97288.22
2023-08-02T18:16:29.733Z,97282.78
2023-08-02T18:18:59.549Z,97283.19
2023-08-02T18:21:28.656Z,97289.13
2023-08-02T18:23:58.610Z,97272.91
2023-08-02T18:26:27.923Z,97289.19
2023-08-02T18:28:57.197Z,97281.09
2023-08-02T18:31:26.826Z,97285.59
2023-08-02T18:33:56.850Z,97281.09
2023-08-02T18:36:26.946Z,97273.34
2023-08-02T18:38:57.408Z,97271.66
2023-08-02T18:41:27.156Z,97282.69
2023-08-02T18:43:57.642Z,97281.97
2023-08-02T18:46:27.025Z,97285.13
2023-08-02T18:48:57.174Z,97280.75
2023-08-02T18:51:28.457Z,97277.41
2023-08-02T18:53:59.181Z,97282.47
2023-08-02T18:56:28.923Z,97281.44
2023-08-02T18:58:58.947Z,97280.00
2023-08-02T19:01:29.995Z,97286.47
2023-08-02T19:04:00.149Z,97292.34
2023-08-02T19:06:30.901Z,97291.22
2023-08-02T19:09:01.426Z,97286.97
2023-08-02T19:11:34.093Z,97296.31
2023-08-02T19:14:03.742Z,97298.59
2023-08-02T19:16:33.433Z,97295.31
2023-08-02T19:19:03.349Z,97284.53
2023-08-02T19:21:33.410Z,97283.97
2023-08-02T19:24:03.042Z,97283.63
2023-08-02T19:26:32.628Z,97278.16
2023-08-02T19:29:02.117Z,97282.94
2023-08-02T19:31:32.449Z,97279.84
2023-08-02T19:34:04.511Z,97275.44
2023-08-02T19:36:34.777Z,97282.38
2023-08-02T19:39:04.585Z,97293.19
2023-08-02T19:41:34.055Z,97302.16
2023-08-02T19:44:03.514Z,97299.56
2023-08-02T19:46:33.122Z,97299.97
2023-08-02T19:49:04.530Z,97298.84
2023-08-02T19:51:34.645Z,97296.41
2023-08-02T19:54:04.681Z,97291.25
2023-08-02T19:56:35.018Z,97293.97
2023-08-02T19:59:04.594Z,97284.41
2023-08-02T20:01:33.818Z,97287.94
2023-08-02T20:04:04.423Z,97279.75
2023-08-02T20:06:35.938Z,97275.72
2023-08-02T20:09:06.997Z,97277.72
2023-08-02T20:11:36.424Z,97280.53
2023-08-02T20:14:06.245Z,97283.19
2023-08-02T20:16:38.188Z,97284.88
2023-08-02T20:19:15.271Z,97282.47
2023-08-02T20:21:48.568Z,97282.94
2023-08-02T20:24:18.971Z,97283.19
2023-08-02T20:26:52.452Z,97277.72
2023-08-02T20:29:26.804Z,97274.22
2023-08-02T20:31:56.472Z,97273.88
2023-08-02T20:34:27.472Z,97274.78
2023-08-02T20:36:56.942Z,97271.59
2023-08-02T20:39:29.502Z,97275.94
2023-08-02T20:41:59.083Z,97271.28
2023-08-02T20:44:28.332Z,97270.47
2023-08-02T20:46:58.339Z,97272.84
2023-08-02T20:49:27.625Z,97263.09
2023-08-02T20:51:56.923Z,97265.81
2023-08-02T20:54:26.556Z,97270.81
2023-08-02T20:56:55.972Z,97265.81
2023-08-02T20:59:28.431Z,97268.09
2023-08-02T21:01:58.226Z,97271.59
2023-08-02T21:04:27.552Z,97271.16
2023-08-02T21:07:09.487Z,97287.09
2023-08-02T21:09:40.715Z,97294.00
2023-08-02T21:12:10.398Z,97294.81
2023-08-02T21:14:41.378Z,97288.13
2023-08-02T21:17:17.862Z,97283.81
2023-08-02T21:19:48.938Z,97288.94
2023-08-02T21:22:19.369Z,97287.31
2023-08-02T21:24:48.858Z,97286.78
2023-08-02T21:27:18.681Z,97285.66
2023-08-02T21:29:49.086Z,97292.84
2023-08-02T21:32:21.252Z,97293.72
2023-08-02T21:34:55.852Z,97290.22
2023-08-02T21:37:25.304Z,97287.47
2023-08-02T21:39:54.638Z,97296.47
2023-08-02T21:42:28.721Z,97295.31
2023-08-02T21:45:00.237Z,97297.94
2023-08-02T21:47:30.188Z,97301.13
2023-08-02T21:49:59.571Z,97291.00
2023-08-02T21:52:28.801Z,97292.88
2023-08-02T21:54:58.259Z,97290.34
2023-08-02T21:57:27.396Z,97295.56
2023-08-02T21:59:59.092Z,97291.72
2023-08-02T22:02:41.524Z,97290.44
2023-08-02T22:05:17.654Z,97290.03
2023-08-02T22:07:47.190Z,97291.59
2023-08-02T22:10:20.260Z,97286.13
2023-08-02T22:12:50.232Z,97286.84
2023-08-02T22:15:20.981Z,97280.91
2023-08-02T22:17:52.882Z,97273.19
2023-08-02T22:20:22.604Z,97274.78
2023-08-02T22:22:51.929Z,97264.22
2023-08-02T22:25:21.908Z,97267.66
2023-08-02T22:27:51.617Z,97269.50
2023-08-02T22:30:20.782Z,97274.38
2023-08-02T22:32:50.532Z,97264.53
2023-08-02T22:35:19.864Z,97260.41
2023-08-02T22:37:50.257Z,97258.72
2023-08-02T22:40:19.797Z,97258.59
2023-08-02T22:42:48.892Z,97258.38
2023-08-02T22:45:18.393Z,97259.06
2023-08-02T22:47:59.187Z,97264.53
2023-08-02T22:53:12.013Z,97256.34
2023-08-02T22:55:41.489Z,97264.84
2023-08-02T22:58:11.523Z,97275.41
2023-08-02T23:00:40.665Z,97286.00
2023-08-02T23:03:39.294Z,97277.00
2023-08-02T23:06:12.434Z,97271.56
2023-08-02T23:08:42.377Z,97263.16
2023-08-02T23:11:18.956Z,97274.06
2023-08-02T23:13:51.454Z,97281.09
2023-08-02T23:16:26.903Z,97280.06
2023-08-02T23:18:58.746Z,97278.16
2023-08-02T23:21:33.355Z,97270.22
2023-08-02T23:24:05.142Z,97278.59
2023-08-02T23:26:34.606Z,97280.06
2023-08-02T23:29:05.557Z,97281.22
2023-08-02T23:31:35.482Z,97268.63
2023-08-02T23:34:04.679Z,97269.78
2023-08-02T23:36:34.222Z,97268.28
2023-08-02T23:39:03.459Z,97271.47
2023-08-02T23:41:33.227Z,97269.06
2023-08-02T23:44:02.454Z,97272.22
2023-08-02T23:46:31.827Z,97280.69
2023-08-02T23:49:01.725Z,97287.81
2023-08-02T23:51:31.118Z,97282.00
2023-08-02T23:54:02.579Z,97291.09
2023-08-02T23:56:32.339Z,97296.44
2023-08-02T23:59:01.934Z,97289.19
